Date,TemperatureHighF,TemperatureAvgF,TemperatureLowF,DewpointHighF,DewpointAvgF,DewpointLowF,HumidityHigh,HumidityAvg,HumidityLow,PressureMaxIn,PressureMinIn,WindSpeedMaxMPH,WindSpeedAvgMPH,GustSpeedMaxMPH,PrecipitationSumIn
2014-1-1,25.1,19.9,17.4,-99.9,-99.9,-99.9,0,0,100,0.00,40.00,3,1,7,0.08
2014-1-2,19.9,16.6,10.5,-99.9,-99.9,-99.9,0,0,100,0.00,40.00,8,5,20,0.07
2014-1-3,19.0,11.4,7.6,-99.9,-99.9,-99.9,0,0,100,0.00,40.00,6,2,14,0.00
2014-1-4,31.8,21.1,10.2,-99.9,-99.9,-99.9,0,0,100,0.00,40.00,10,5,24,0.00
2014-1-5,41.4,33.7,30.1,-99.9,-99.9,-99.9,0,0,100,0.00,40.00,6,2,17,0.23
2014-1-6,41.7,6.7,-19.4,-99.9,-99.9,-99.9,0,0,100,0.00,40.00,12,8,28,0.09
2014-1-7,2.2,-9.7,-30.6,-99.9,-99.9,-99.9,0,0,100,0.00,40.00,10,7,25,0.00
2014-1-8,23.9,11.9,-0.8,-99.9,-99.9,-99.9,0,0,100,0.00,40.00,6,3,13,0.00
2014-1-9,34.7,20.4,7.8,-99.9,-99.9,-99.9,0,0,100,0.00,40.00,2,1,10,0.04
2014-1-10,43.0,37.1,27.5,-99.9,-99.9,-99.9,0,0,100,0.00,40.00,4,2,14,0.07
2014-1-11,50.2,43.8,33.2,-99.9,-99.9,-99.9,0,0,100,0.00,40.00,10,6,32,0.24
2014-1-12,36.4,33.3,31.8,-99.9,-99.9,-99.9,0,0,100,0.00,40.00,8,5,20,0.00
2014-1-13,48.0,43.3,36.8,-99.9,-99.9,-99.9,0,0,100,0.00,40.00,10,7,23,0.06
2014-1-14,45.8,38.2,34.4,-99.9,-99.9,-99.9,0,0,100,0.00,40.00,7,3,20,0.00
2014-1-15,38.2,29.6,26.3,-99.9,-99.9,-99.9,0,0,100,0.00,40.00,10,7,25,0.00
2014-1-16,48.7,19.9,-2.2,-99.9,-99.9,-99.9,0,0,100,0.00,40.00,8,5,20,0.00
2014-1-17,46.5,28.2,-2.1,-99.9,-99.9,-99.9,0,0,100,0.00,40.00,9,5,21,0.01
2014-1-18,27.8,18.5,14.2,-99.9,-99.9,-99.9,0,0,100,0.00,40.00,8,5,19,0.01
2014-1-19,31.2,21.2,11.5,-99.9,-99.9,-99.9,0,0,100,0.00,40.00,11,6,26,0.01
2014-1-20,28.7,19.4,10.9,-99.9,-99.9,-99.9,0,0,100,0.00,40.00,8,3,18,0.00
2014-1-21,15.1,8.8,0.8,-99.9,-99.9,-99.9,0,0,100,0.00,40.00,7,4,18,0.00
2014-1-22,16.5,7.2,-2.4,-99.9,-99.9,-99.9,0,0,100,0.00,40.00,5,2,12,0.00
2014-1-23,11.6,7.8,2.9,-99.9,-99.9,-99.9,0,0,100,0.00,40.00,5,3,16,0.07
2014-1-24,14.3,5.8,-4.5,-99.9,-99.9,-99.9,0,0,100,0.00,40.00,11,7,28,0.00
2014-1-25,27.2,17.6,10.8,-99.9,-99.9,-99.9,0,0,100,0.00,40.00,11,7,29,0.12
2014-1-26,29.9,14.2,3.9,-99.9,-99.9,-99.9,0,0,100,0.00,40.00,7,5,18,0.02
2014-1-27,305.1,12.5,-15.5,-99.9,-99.9,-99.9,0,0,100,0.00,40.00,14,8,33,0.01
2014-1-28,-48.0,-8.1,-65.9,-99.9,-99.9,-99.9,0,0,100,0.00,40.00,6,4,13,0.00
2014-1-29,21.1,10.7,-6.0,-99.9,-99.9,-99.9,0,0,100,0.00,40.00,10,6,23,0.00
2014-1-30,27.7,16.4,6.9,-99.9,-99.9,-99.9,0,0,100,0.00,40.00,8,5,21,0.00
2014-1-31,76.9,30.7,-8.6,-99.9,-99.9,-99.9,0,0,100,0.00,40.00,6,4,16,0.00